createdAt,value
2023-04-05T00:01:12.537Z,99.90
2023-04-05T00:06:16.732Z,99.90
2023-04-05T00:11:19.101Z,99.90
2023-04-05T00:16:22.011Z,99.90
2023-04-05T00:21:25.286Z,99.90
2023-04-05T00:26:28.116Z,99.90
2023-04-05T00:31:33.073Z,99.90
2023-04-05T00:36:36.281Z,99.90
2023-04-05T00:41:38.827Z,99.90
2023-04-05T00:46:42.294Z,99.90
2023-04-05T00:51:45.886Z,99.90
2023-04-05T00:56:48.894Z,99.70
2023-04-05T01:02:13.498Z,98.40
2023-04-05T01:07:29.126Z,97.10
2023-04-05T01:12:34.209Z,98.70
2023-04-05T01:17:39.453Z,98.60
2023-04-05T01:22:52.102Z,98.30
2023-04-05T01:27:58.074Z,98.20
2023-04-05T01:33:08.819Z,97.70
2023-04-05T01:38:18.376Z,98.80
2023-04-05T01:43:20.967Z,99.90
2023-04-05T01:48:23.409Z,99.90
2023-04-05T01:53:26.419Z,99.90
2023-04-05T01:58:29.174Z,99.90
2023-04-05T02:03:32.005Z,99.90
2023-04-05T02:08:34.762Z,99.90
2023-04-05T02:13:37.192Z,99.90
2023-04-05T02:18:39.993Z,99.90
2023-04-05T02:23:44.216Z,99.90
2023-04-05T02:28:47.268Z,99.90
2023-04-05T02:33:49.826Z,99.90
2023-04-05T02:38:52.347Z,99.90
2023-04-05T02:43:54.766Z,99.90
2023-04-05T02:48:57.373Z,99.90
2023-04-05T02:54:03.998Z,99.90
2023-04-05T02:59:09.452Z,99.90
2023-04-05T03:04:13.248Z,99.90
2023-04-05T03:09:16.970Z,99.90
2023-04-05T03:14:21.833Z,99.90
2023-04-05T03:19:26.366Z,99.90
2023-04-05T03:24:36.048Z,99.90
2023-04-05T03:29:43.021Z,99.90
2023-04-05T03:34:52.159Z,99.90
2023-04-05T03:39:57.162Z,99.90
2023-04-05T03:45:00.055Z,99.90
2023-04-05T03:50:03.846Z,99.90
2023-04-05T03:55:08.195Z,99.90
2023-04-05T04:00:14.939Z,99.90
2023-04-05T04:05:18.205Z,99.90
2023-04-05T04:10:24.850Z,99.90
2023-04-05T04:15:32.220Z,99.90
2023-04-05T04:20:45.936Z,99.90
2023-04-05T04:26:06.118Z,99.90
2023-04-05T04:31:33.973Z,99.90
2023-04-05T04:37:01.521Z,99.90
2023-04-05T04:42:19.974Z,99.90
2023-04-05T04:47:49.857Z,99.90
2023-04-05T04:53:23.976Z,99.90
2023-04-05T04:58:26.865Z,99.90
2023-04-05T05:03:39.499Z,99.90
2023-04-05T05:08:41.946Z,99.90
2023-04-05T05:13:45.689Z,99.90
2023-04-05T05:18:55.640Z,99.90
2023-04-05T05:24:01.403Z,99.90
2023-04-05T05:29:04.489Z,99.90
2023-04-05T05:34:10.259Z,99.90
2023-04-05T05:39:16.082Z,99.90
2023-04-05T05:44:18.708Z,99.90
2023-04-05T05:49:21.983Z,99.90
2023-04-05T05:54:25.926Z,99.90
2023-04-05T05:59:29.053Z,99.90
2023-04-05T06:04:31.697Z,99.90
2023-04-05T06:09:35.584Z,99.90
2023-04-05T06:14:38.065Z,99.90
2023-04-05T06:19:40.622Z,99.90
2023-04-05T06:24:43.129Z,99.90
2023-04-05T06:29:45.755Z,99.90
2023-04-05T06:34:49.223Z,99.90
2023-04-05T06:39:51.793Z,99.90
2023-04-05T06:44:54.349Z,99.90
2023-04-05T06:49:56.853Z,99.90
2023-04-05T06:54:59.432Z,99.90
2023-04-05T07:00:02.224Z,99.50
2023-04-05T07:05:06.184Z,99.90
2023-04-05T07:10:09.468Z,97.70
2023-04-05T07:15:12.405Z,97.80
2023-04-05T07:20:16.280Z,95.50
2023-04-05T07:25:18.929Z,93.70
2023-04-05T07:30:21.498Z,92.30
2023-04-05T07:35:24.268Z,94.50
2023-04-05T07:40:27.873Z,95.00
2023-04-05T07:45:30.401Z,95.00
2023-04-05T07:50:34.451Z,79.00
2023-04-05T07:55:40.106Z,79.60
2023-04-05T08:00:42.839Z,87.60
2023-04-05T08:05:45.557Z,77.70
2023-04-05T08:10:48.092Z,88.90
2023-04-05T08:20:57.170Z,73.90
2023-04-05T08:31:03.294Z,90.40
2023-04-05T08:36:06.907Z,79.40
2023-04-05T08:41:19.825Z,71.10
2023-04-05T08:46:23.081Z,73.50
2023-04-05T08:51:26.414Z,60.80
2023-04-05T08:56:36.175Z,58.30
2023-04-05T09:01:42.216Z,59.00
2023-04-05T09:06:46.249Z,48.30
2023-04-05T09:11:49.020Z,49.20
2023-04-05T09:16:52.014Z,59.90
2023-04-05T09:22:07.905Z,51.80
2023-04-05T09:27:22.311Z,44.60
2023-04-05T09:32:37.871Z,51.10
2023-04-05T09:37:53.464Z,57.50
2023-04-05T09:42:57.167Z,46.40
2023-04-05T09:47:59.598Z,39.70
2023-04-05T09:53:18.854Z,39.70
2023-04-05T09:58:27.574Z,47.10
2023-04-05T10:03:30.842Z,41.00
2023-04-05T10:08:33.348Z,36.10
2023-04-05T10:13:36.334Z,36.80
2023-04-05T10:18:49.422Z,37.80
2023-04-05T10:24:18.321Z,29.40
2023-04-05T10:29:29.529Z,41.80
2023-04-05T10:34:43.580Z,39.80
2023-04-05T10:39:47.443Z,26.60
2023-04-05T10:44:55.728Z,29.30
2023-04-05T10:50:03.820Z,33.50
2023-04-05T10:55:08.646Z,46.50
2023-04-05T11:00:12.158Z,34.80
2023-04-05T11:05:37.634Z,25.00
2023-04-05T11:10:41.255Z,45.90
2023-04-05T11:15:43.986Z,46.20
2023-04-05T11:21:05.592Z,34.70
2023-04-05T11:26:08.302Z,23.20
2023-04-05T11:31:26.928Z,26.50
2023-04-05T11:36:36.991Z,37.10
2023-04-05T11:41:39.525Z,36.10
2023-04-05T11:46:42.961Z,29.00
2023-04-05T11:51:49.048Z,26.90
2023-04-05T11:56:52.297Z,40.70
2023-04-05T12:02:07.691Z,31.90
2023-04-05T12:07:11.328Z,26.70
2023-04-05T12:12:17.376Z,34.40
2023-04-05T12:17:37.066Z,41.60
2023-04-05T12:22:41.884Z,27.90
2023-04-05T12:27:44.877Z,22.40
2023-04-05T12:32:50.701Z,21.20
2023-04-05T12:37:53.256Z,24.30
2023-04-05T12:43:03.184Z,25.70
2023-04-05T12:48:13.618Z,31.70
2023-04-05T12:53:21.005Z,26.10
2023-04-05T12:58:33.647Z,23.20
2023-04-05T13:03:36.339Z,19.60
2023-04-05T13:08:38.800Z,20.10
2023-04-05T13:13:41.429Z,24.60
2023-04-05T13:18:44.432Z,33.00
2023-04-05T13:23:46.973Z,41.20
2023-04-05T13:28:49.511Z,35.30
2023-04-05T13:33:52.176Z,29.10
2023-04-05T13:38:54.661Z,29.20
2023-04-05T13:44:01.121Z,20.60
2023-04-05T13:49:04.631Z,20.00
2023-04-05T13:54:11.685Z,24.30
2023-04-05T13:59:17.363Z,29.00
2023-04-05T14:04:20.355Z,26.00
2023-04-05T14:09:22.910Z,26.00
2023-04-05T14:14:25.518Z,24.60
2023-04-05T14:19:27.967Z,22.70
2023-04-05T14:24:30.768Z,22.70
2023-04-05T14:29:33.527Z,18.80
2023-04-05T14:34:36.518Z,16.30
2023-04-05T14:39:38.972Z,19.30
2023-04-05T14:44:41.474Z,19.40
2023-04-05T14:49:44.041Z,19.40
2023-04-05T14:54:46.620Z,19.20
2023-04-05T14:59:49.163Z,20.90
2023-04-05T15:04:51.641Z,16.80
2023-04-05T15:09:54.226Z,16.80
2023-04-05T15:14:57.434Z,17.40
2023-04-05T15:19:59.935Z,18.30
2023-04-05T15:25:02.690Z,16.20
2023-04-05T15:30:06.179Z,17.80
2023-04-05T15:35:09.182Z,18.20
2023-04-05T15:40:11.945Z,16.70
2023-04-05T15:45:14.601Z,17.10
2023-04-05T15:50:17.219Z,17.90
2023-04-05T15:55:19.881Z,19.20
2023-04-05T16:00:22.950Z,20.00
2023-04-05T16:05:25.973Z,19.10
2023-04-05T16:10:28.399Z,20.10
2023-04-05T16:15:32.587Z,20.20
2023-04-05T16:20:35.159Z,18.90
2023-04-05T16:25:37.903Z,20.00
2023-04-05T16:30:41.654Z,19.70
2023-04-05T16:35:44.100Z,20.70
2023-04-05T16:40:46.758Z,20.00
2023-04-05T16:45:49.455Z,20.70
2023-04-05T16:50:52.613Z,25.30
2023-04-05T17:01:00.259Z,23.40
2023-04-05T17:06:03.371Z,23.50
2023-04-05T17:11:06.904Z,25.40
2023-04-05T17:16:09.542Z,27.40
2023-04-05T17:21:12.563Z,28.80
2023-04-05T17:31:19.202Z,72.10
2023-04-05T17:36:21.825Z,34.70
2023-04-05T17:41:24.470Z,38.60
2023-04-05T17:51:44.026Z,42.00
2023-04-05T17:56:46.605Z,44.20
2023-04-05T18:01:53.896Z,45.20
2023-04-05T18:06:56.974Z,45.90
2023-04-05T18:11:59.748Z,46.60
2023-04-05T18:17:02.602Z,47.00
2023-04-05T18:22:05.109Z,49.10
2023-04-05T18:27:07.730Z,50.50
2023-04-05T18:32:10.920Z,53.10
2023-04-05T18:37:13.581Z,54.40
2023-04-05T18:42:15.996Z,56.80
2023-04-05T18:47:18.473Z,73.60
2023-04-05T18:52:26.063Z,85.30
2023-04-05T18:57:28.825Z,91.60
2023-04-05T19:02:31.517Z,91.00
2023-04-05T19:07:34.056Z,90.30
2023-04-05T19:12:36.644Z,91.60
2023-04-05T19:17:39.080Z,92.50
2023-04-05T19:22:41.570Z,92.60
2023-04-05T19:27:44.089Z,93.00
2023-04-05T19:32:46.605Z,93.90
2023-04-05T19:37:49.053Z,94.50
2023-04-05T19:42:52.474Z,94.90
2023-04-05T19:47:56.509Z,95.40
2023-04-05T19:52:59.653Z,96.50
2023-04-05T19:58:07.452Z,97.70
2023-04-05T20:03:32.231Z,98.60
2023-04-05T20:08:37.793Z,99.80
2023-04-05T20:13:56.183Z,99.90
2023-04-05T20:19:05.750Z,99.90
2023-04-05T20:24:09.831Z,99.90
2023-04-05T20:29:17.572Z,99.90
2023-04-05T20:34:32.119Z,99.90
2023-04-05T20:39:34.906Z,99.90
2023-04-05T20:44:37.887Z,99.90
2023-04-05T20:49:40.376Z,99.90
2023-04-05T20:54:42.914Z,99.90
2023-04-05T20:59:45.947Z,99.90
2023-04-05T21:04:50.501Z,99.90
2023-04-05T21:09:53.069Z,99.90
2023-04-05T21:14:55.839Z,99.90
2023-04-05T21:19:58.502Z,99.90
2023-04-05T21:25:00.978Z,99.90
2023-04-05T21:30:03.920Z,99.90
2023-04-05T21:35:06.836Z,99.90
2023-04-05T21:40:09.938Z,99.90
2023-04-05T21:45:13.087Z,99.90
2023-04-05T21:50:15.710Z,99.90
2023-04-05T21:55:18.225Z,99.90
2023-04-05T22:00:20.867Z,99.90
2023-04-05T22:05:36.415Z,99.90
2023-04-05T22:10:40.299Z,99.90
2023-04-05T22:15:44.173Z,99.90
2023-04-05T22:20:46.708Z,99.90
2023-04-05T22:25:49.216Z,99.90
2023-04-05T22:30:51.764Z,99.90
2023-04-05T22:35:54.272Z,99.90
2023-04-05T22:40:56.716Z,99.90
2023-04-05T22:45:59.201Z,99.90
2023-04-05T22:51:01.675Z,99.90
2023-04-05T22:56:04.632Z,99.90
2023-04-05T23:01:08.440Z,99.90
2023-04-05T23:06:11.110Z,99.90
2023-04-05T23:11:13.682Z,99.90
2023-04-05T23:16:17.134Z,99.90
2023-04-05T23:21:19.621Z,99.90
2023-04-05T23:26:21.990Z,99.90
2023-04-05T23:31:24.592Z,99.90
2023-04-05T23:36:27.870Z,99.90
2023-04-05T23:41:30.474Z,99.90
2023-04-05T23:46:33.787Z,99.90
2023-04-05T23:51:36.529Z,99.90
2023-04-05T23:56:39.012Z,99.90
